Time;durP1;ratioP1;P1;durP2;ratioP2;P2;SDS_P1;SDS_P2;PMS_P1;PMS_P2;Temp;Humidity;BMP_temperature;BMP_pressure;BME280_temperature;BME280_humidity;BME280_pressure;Samples;Min_cycle;Max_cycle;Signal;HPM_P1;HPM_P2
2023/03/07 00:01:23;;;;;;;23.10;14.80;;;4.20;99.90;;;;;;5062377;28;20040;-52
2023/03/07 00:03:49;;;;;;;23.90;15.40;;;4.20;99.90;;;;;;5068146;28;20044;-52
2023/03/07 00:06:14;;;;;;;27.47;14.47;;;4.30;99.90;;;;;;5067530;28;20418;-53
2023/03/07 00:08:40;;;;;;;22.07;15.00;;;4.20;99.90;;;;;;5065168;28;20072;-55
2023/03/07 00:11:07;;;;;;;22.90;14.17;;;4.20;99.90;;;;;;5052892;28;20495;-55
2023/03/07 00:13:35;;;;;;;20.42;12.65;;;4.20;99.90;;;;;;5061300;28;20294;-54
2023/03/07 00:16:06;;;;;;;18.50;12.23;;;4.30;99.90;;;;;;5068661;28;20044;-54
2023/03/07 00:18:32;;;;;;;16.73;9.65;;;4.30;99.90;;;;;;5067096;28;20045;-55
2023/03/07 00:21:00;;;;;;;12.10;9.63;;;4.20;99.90;;;;;;5054597;28;20086;-54
2023/03/07 00:23:25;;;;;;;9.35;6.57;;;4.30;99.90;;;;;;5060122;28;20412;-53
2023/03/07 00:26:03;;;;;;;6.60;5.57;;;4.20;99.90;;;;;;5051034;28;20124;-52
2023/03/07 00:28:29;;;;;;;4.45;3.05;;;4.20;99.90;;;;;;5051661;28;20291;-55
2023/03/07 00:30:59;;;;;;;2.70;2.50;;;4.20;99.90;;;;;;5050195;28;20103;-54
2023/03/07 00:33:24;;;;;;;1.55;1.33;;;4.10;99.90;;;;;;5049004;28;20123;-56
2023/03/07 00:36:26;;;;;;;1.93;1.20;;;4.10;99.90;;;;;;5050019;28;20455;-54
2023/03/07 00:38:52;;;;;;;1.90;1.08;;;4.10;99.90;;;;;;4967588;28;20050;-53
2023/03/07 00:41:23;;;;;;;2.28;1.45;;;4.00;99.90;;;;;;4967819;28;20243;-55
2023/03/07 00:43:49;;;;;;;2.33;2.13;;;4.00;99.90;;;;;;4967442;28;20051;-56
2023/03/07 00:46:16;;;;;;;4.15;1.90;;;4.00;99.90;;;;;;4969021;28;20062;-53
2023/03/07 00:48:42;;;;;;;2.53;2.05;;;4.00;99.90;;;;;;4977062;28;20396;-53
2023/03/07 00:51:10;;;;;;;3.63;2.97;;;3.90;99.90;;;;;;4991001;28;20038;-55
2023/03/07 00:53:36;;;;;;;3.28;2.88;;;3.90;99.90;;;;;;4974262;28;20234;-54
2023/03/07 00:56:06;;;;;;;5.50;4.10;;;4.00;99.90;;;;;;4990575;28;20053;-55
2023/03/07 00:58:34;;;;;;;3.45;3.15;;;3.90;99.90;;;;;;4990513;28;20508;-53
2023/03/07 01:01:01;;;;;;;4.57;3.80;;;3.90;99.90;;;;;;4971363;28;20046;-56
2023/03/07 01:03:27;;;;;;;7.32;5.22;;;4.00;99.90;;;;;;4954844;28;20516;-55
2023/03/07 01:05:53;;;;;;;5.63;4.47;;;4.00;99.90;;;;;;4971464;28;20051;-52
2023/03/07 01:08:19;;;;;;;;;;;4.00;99.90;;;;;;4969950;28;20126;-53
2023/03/07 01:10:47;;;;;;;7.10;4.80;;;4.00;99.90;;;;;;4973469;28;20057;-55
2023/03/07 01:13:14;;;;;;;4.93;4.43;;;4.00;99.90;;;;;;5024009;28;20234;-54
2023/03/07 01:15:39;;;;;;;;;;;4.00;99.90;;;;;;5053189;28;20040;-54
2023/03/07 01:18:06;;;;;;;4.25;2.95;;;4.00;99.90;;;;;;5051244;28;20012;-52
2023/03/07 01:20:33;;;;;;;6.22;3.60;;;4.00;99.90;;;;;;5064416;28;20040;-54
2023/03/07 01:22:59;;;;;;;5.00;2.22;;;4.10;99.90;;;;;;5063684;28;20123;-56
2023/03/07 01:25:25;;;;;;;4.97;3.23;;;4.00;99.90;;;;;;5058004;28;20112;-55
2023/03/07 01:27:54;;;;;;;2.75;2.30;;;4.10;99.90;;;;;;5052336;28;20047;-52
2023/03/07 01:30:20;;;;;;;6.47;2.28;;;4.10;99.90;;;;;;5062814;28;20029;-54
2023/03/07 01:32:47;;;;;;;2.15;0.77;;;4.00;99.90;;;;;;5069393;28;20036;-55
2023/03/07 01:35:13;;;;;;;1.77;0.68;;;4.00;99.90;;;;;;5060442;28;20107;-54
2023/03/07 01:37:38;;;;;;;1.63;0.82;;;4.00;99.90;;;;;;5053645;28;20192;-54
2023/03/07 01:40:05;;;;;;;2.93;0.60;;;4.00;99.90;;;;;;5059137;28;20032;-54
2023/03/07 01:42:31;;;;;;;3.47;1.48;;;4.00;99.90;;;;;;5051268;28;20623;-54
2023/03/07 01:45:07;;;;;;;1.97;0.50;;;4.00;99.90;;;;;;5056545;28;20029;-55
2023/03/07 01:47:33;;;;;;;3.57;0.80;;;3.90;99.90;;;;;;5063332;28;20509;-54
2023/03/07 01:50:03;;;;;;;1.15;0.60;;;4.00;99.90;;;;;;5053355;28;20037;-54
2023/03/07 01:52:40;;;;;;;1.85;0.50;;;3.90;99.90;;;;;;5070916;28;20421;-53
2023/03/07 01:55:18;;;;;;;1.02;0.47;;;3.90;99.90;;;;;;5069664;28;20041;-54
2023/03/07 01:57:48;;;;;;;2.25;0.93;;;3.90;99.90;;;;;;5050907;28;20044;-53
2023/03/07 02:00:22;;;;;;;2.13;0.80;;;3.90;99.90;;;;;;5063560;28;20425;-56
2023/03/07 02:02:58;;;;;;;2.47;0.32;;;3.90;99.90;;;;;;5056331;28;20525;-54
2023/03/07 02:05:28;;;;;;;3.22;0.40;;;3.90;99.90;;;;;;5051241;28;20041;-53
2023/03/07 02:07:56;;;;;;;0.88;0.40;;;3.90;99.90;;;;;;5066936;28;20410;-52
2023/03/07 02:10:22;;;;;;;1.67;0.60;;;3.80;99.90;;;;;;5066868;28;20044;-53
2023/03/07 02:12:49;;;;;;;1.88;0.40;;;3.80;99.90;;;;;;5052910;28;20045;-54
2023/03/07 02:15:15;;;;;;;3.38;0.60;;;3.80;99.90;;;;;;5051210;28;20053;-55
2023/03/07 02:17:41;;;;;;;1.92;0.70;;;3.80;99.90;;;;;;5048954;28;20068;-53
2023/03/07 02:20:50;;;;;;;1.73;0.82;;;3.80;99.90;;;;;;5051627;28;20056;-55
2023/03/07 02:23:25;;;;;;;;;;;3.80;99.90;;;;;;5051640;28;20044;-54
2023/03/07 02:26:27;;;;;;;1.52;0.75;;;3.80;99.90;;;;;;5068709;28;20278;-56
2023/03/07 02:28:53;;;;;;;4.05;1.15;;;3.80;99.90;;;;;;5069427;28;20489;-55
2023/03/07 02:31:19;;;;;;;3.60;0.90;;;3.80;99.90;;;;;;5070336;28;20501;-54
2023/03/07 02:33:45;;;;;;;4.20;0.75;;;3.70;99.90;;;;;;5070651;28;20036;-56
2023/03/07 02:36:14;;;;;;;3.17;0.80;;;3.70;99.90;;;;;;5070088;28;20494;-55
2023/03/07 02:38:43;;;;;;;4.05;1.00;;;3.70;99.90;;;;;;5068914;28;20505;-55
2023/03/07 02:41:11;;;;;;;4.13;1.27;;;3.70;99.90;;;;;;5069163;28;20048;-52
2023/03/07 02:43:37;;;;;;;9.80;0.90;;;3.70;99.90;;;;;;5070089;28;20048;-54
2023/03/07 02:46:04;;;;;;;5.63;1.10;;;3.70;99.90;;;;;;5070121;28;20511;-53
2023/03/07 02:48:29;;;;;;;4.00;0.70;;;3.70;99.90;;;;;;5069131;28;20075;-54
2023/03/07 02:50:55;;;;;;;5.83;1.20;;;3.70;99.90;;;;;;5068304;28;20106;-53
2023/03/07 02:53:21;;;;;;;8.23;0.63;;;3.70;99.90;;;;;;5070016;28;20491;-55
2023/03/07 02:55:46;;;;;;;3.38;0.60;;;3.70;99.90;;;;;;5069788;28;20047;-52
2023/03/07 02:58:12;;;;;;;9.53;1.03;;;3.70;99.90;;;;;;5069122;28;20555;-55
2023/03/07 03:00:37;;;;;;;6.63;1.13;;;3.70;99.90;;;;;;5066491;28;20231;-52
2023/03/07 03:03:03;;;;;;;8.30;0.77;;;3.70;99.90;;;;;;5051380;28;20494;-52
2023/03/07 03:05:29;;;;;;;3.58;0.45;;;3.70;99.90;;;;;;5050231;28;20037;-56
2023/03/07 03:07:55;;;;;;;5.90;0.80;;;3.70;99.90;;;;;;5048312;28;20044;-53
2023/03/07 03:10:21;;;;;;;3.92;0.50;;;3.70;99.90;;;;;;5056025;28;20032;-54
2023/03/07 03:12:46;;;;;;;5.85;0.50;;;3.70;99.90;;;;;;5063967;28;20041;-56
2023/03/07 03:15:12;;;;;;;6.33;0.60;;;3.70;99.90;;;;;;5061097;28;20038;-54
2023/03/07 03:17:38;;;;;;;5.60;1.23;;;3.70;99.90;;;;;;5053035;28;20350;-52
2023/03/07 03:20:06;;;;;;;18.15;2.25;;;3.70;99.90;;;;;;5058361;28;20060;-54
2023/03/07 03:22:32;;;;;;;5.10;0.68;;;3.60;99.90;;;;;;5050307;28;20055;-52
2023/03/07 03:24:57;;;;;;;7.43;1.15;;;3.70;99.90;;;;;;5058702;28;20426;-55
2023/03/07 03:27:23;;;;;;;12.37;1.00;;;3.70;99.90;;;;;;5048935;28;20115;-55
2023/03/07 03:29:49;;;;;;;6.90;0.50;;;3.70;99.90;;;;;;5048725;28;20093;-54
2023/03/07 03:32:14;;;;;;;8.37;1.30;;;3.70;99.90;;;;;;5048303;28;20608;-54
2023/03/07 03:34:40;;;;;;;8.70;1.13;;;3.60;99.90;;;;;;5050860;28;20033;-54
2023/03/07 03:37:06;;;;;;;6.53;1.37;;;3.70;99.90;;;;;;5049450;28;20383;-55
2023/03/07 03:39:32;;;;;;;;;;;3.70;99.90;;;;;;5066651;28;20498;-55
2023/03/07 03:41:57;;;;;;;5.43;0.70;;;3.70;99.90;;;;;;5069207;28;19923;-54
2023/03/07 03:44:23;;;;;;;8.60;0.87;;;3.60;99.90;;;;;;5069729;28;20037;-54
2023/03/07 03:46:48;;;;;;;5.63;0.90;;;3.60;99.90;;;;;;5069147;28;20039;-53
2023/03/07 03:49:15;;;;;;;8.77;3.20;;;3.60;99.90;;;;;;5068294;28;20040;-55
2023/03/07 03:51:41;;;;;;;3.72;0.60;;;3.60;99.90;;;;;;5064850;28;20497;-55
2023/03/07 03:54:07;;;;;;;6.13;2.43;;;3.60;99.90;;;;;;5049387;28;20127;-55
2023/03/07 03:56:32;;;;;;;3.13;0.77;;;3.60;99.90;;;;;;5048974;28;20037;-54
2023/03/07 03:58:58;;;;;;;10.83;1.53;;;3.60;99.90;;;;;;5048468;28;20044;-54
2023/03/07 04:01:26;;;;;;;6.00;0.80;;;3.60;99.90;;;;;;5049556;28;20040;-52
2023/03/07 04:03:55;;;;;;;9.32;1.13;;;3.60;99.90;;;;;;5049220;28;20053;-53
2023/03/07 04:06:23;;;;;;;8.70;0.98;;;3.60;99.90;;;;;;5049321;28;20029;-56
2023/03/07 04:08:50;;;;;;;5.40;1.05;;;3.60;99.90;;;;;;5067463;28;20032;-54
2023/03/07 04:11:16;;;;;;;6.57;1.05;;;3.60;99.90;;;;;;5069368;28;20033;-55
2023/03/07 04:13:42;;;;;;;14.90;1.10;;;3.60;99.90;;;;;;5069387;28;20037;-54
2023/03/07 04:16:08;;;;;;;6.73;0.83;;;3.60;99.90;;;;;;5067721;28;20154;-54
2023/03/07 04:18:35;;;;;;;8.75;1.27;;;3.60;99.90;;;;;;5068359;28;20115;-52
2023/03/07 04:21:01;;;;;;;7.93;1.38;;;3.60;99.90;;;;;;5053893;28;20029;-54
2023/03/07 04:23:27;;;;;;;12.77;0.85;;;3.70;99.90;;;;;;5060010;28;20044;-54
2023/03/07 04:25:55;;;;;;;6.63;1.08;;;3.60;99.90;;;;;;5072028;28;20379;-54
2023/03/07 04:28:26;;;;;;;8.88;1.15;;;3.70;99.90;;;;;;5068105;28;20032;-54
2023/03/07 04:30:52;;;;;;;9.60;1.17;;;3.70;99.90;;;;;;5062049;28;20455;-54
2023/03/07 04:33:19;;;;;;;9.07;0.70;;;3.70;99.90;;;;;;5072847;28;20079;-55
2023/03/07 04:35:44;;;;;;;11.50;0.82;;;3.70;99.90;;;;;;5072263;28;20079;-54
2023/03/07 04:38:11;;;;;;;12.50;1.73;;;3.70;99.90;;;;;;5063495;28;20045;-56
2023/03/07 04:40:37;;;;;;;6.63;0.70;;;3.70;99.90;;;;;;5070623;28;20084;-54
2023/03/07 04:43:04;;;;;;;8.47;1.43;;;3.70;99.90;;;;;;5070963;28;20181;-55
2023/03/07 04:45:33;;;;;;;13.90;1.35;;;3.70;99.90;;;;;;5072871;28;20286;-53
2023/03/07 04:47:58;;;;;;;16.15;1.98;;;3.70;99.90;;;;;;5080484;28;20086;-53
2023/03/07 04:50:24;;;;;;;7.32;0.85;;;3.80;99.90;;;;;;5081673;28;20028;-55
2023/03/07 04:52:50;;;;;;;12.40;0.70;;;3.80;99.90;;;;;;5068331;28;20036;-54
2023/03/07 04:55:15;;;;;;;9.40;0.97;;;3.80;99.90;;;;;;5072441;28;20064;-55
2023/03/07 04:57:41;;;;;;;11.95;1.10;;;3.80;99.90;;;;;;5070715;28;20045;-54
2023/03/07 05:00:09;;;;;;;11.77;1.53;;;3.80;99.90;;;;;;5071821;28;20093;-54
2023/03/07 05:02:35;;;;;;;7.47;0.88;;;3.80;99.90;;;;;;5072071;28;20047;-56
2023/03/07 05:05:01;;;;;;;6.38;1.52;;;3.80;99.90;;;;;;5066716;28;20405;-53
2023/03/07 05:07:28;;;;;;;9.68;1.48;;;3.80;99.90;;;;;;5052107;28;20048;-54
2023/03/07 05:09:54;;;;;;;6.10;1.02;;;3.70;99.90;;;;;;5052343;28;20033;-55
2023/03/07 05:12:21;;;;;;;8.32;1.42;;;3.70;99.90;;;;;;5052751;28;20041;-55
2023/03/07 05:14:46;;;;;;;8.52;0.93;;;3.70;99.90;;;;;;5053594;28;20112;-55
2023/03/07 05:17:12;;;;;;;8.10;1.67;;;3.70;99.90;;;;;;5052223;28;20566;-52
2023/03/07 05:19:37;;;;;;;10.13;0.70;;;3.60;99.90;;;;;;5051629;28;20567;-54
2023/03/07 05:22:03;;;;;;;12.47;2.13;;;3.70;99.90;;;;;;5052148;28;20040;-52
2023/03/07 05:24:29;;;;;;;7.97;0.70;;;3.60;99.90;;;;;;5052335;28;20033;-54
2023/03/07 05:26:54;;;;;;;5.05;1.80;;;3.60;99.90;;;;;;5052446;28;20044;-54
2023/03/07 05:29:20;;;;;;;7.37;0.47;;;3.60;99.90;;;;;;5050943;28;20048;-55
2023/03/07 05:31:46;;;;;;;5.83;0.70;;;3.50;99.90;;;;;;5051324;28;20036;-53
2023/03/07 05:34:12;;;;;;;11.93;1.20;;;3.60;99.90;;;;;;5051864;28;20056;-55
2023/03/07 05:36:37;;;;;;;7.70;0.63;;;3.60;99.90;;;;;;5051781;28;20306;-55
2023/03/07 05:39:03;;;;;;;7.67;0.70;;;3.60;99.90;;;;;;5062274;28;20043;-54
2023/03/07 05:41:29;;;;;;;8.45;1.33;;;3.60;99.90;;;;;;5066800;28;20512;-53
2023/03/07 05:43:55;;;;;;;5.13;0.60;;;3.60;99.90;;;;;;5057587;28;20044;-55
2023/03/07 05:46:20;;;;;;;4.30;0.63;;;3.60;99.90;;;;;;5054288;28;20159;-52
2023/03/07 05:48:46;;;;;;;3.37;0.50;;;3.60;99.90;;;;;;5050283;28;20037;-55
2023/03/07 05:51:12;;;;;;;7.23;0.70;;;3.50;99.90;;;;;;5051827;28;20295;-54
2023/03/07 05:53:37;;;;;;;4.70;0.70;;;3.50;99.90;;;;;;5051394;28;20051;-55
2023/03/07 05:56:03;;;;;;;6.40;0.70;;;3.50;99.90;;;;;;5051473;28;20108;-55
2023/03/07 05:58:29;;;;;;;2.17;0.50;;;3.50;99.90;;;;;;5050631;28;20044;-54
2023/03/07 06:00:54;;;;;;;13.83;1.20;;;3.50;99.90;;;;;;5051636;28;20472;-56
2023/03/07 06:03:20;;;;;;;6.57;1.03;;;3.50;99.90;;;;;;5051134;28;20045;-54
2023/03/07 06:05:49;;;;;;;7.07;0.63;;;3.50;99.90;;;;;;5050822;28;20053;-53
2023/03/07 06:08:14;;;;;;;6.50;1.27;;;3.50;99.90;;;;;;5049846;28;20068;-54
2023/03/07 06:10:41;;;;;;;9.43;1.20;;;3.50;99.90;;;;;;5051373;28;20073;-55
2023/03/07 06:13:14;;;;;;;7.07;1.10;;;3.50;99.90;;;;;;5051268;28;20049;-54
2023/03/07 06:15:39;;;;;;;14.90;1.52;;;3.50;99.90;;;;;;5050969;28;20053;-53
2023/03/07 06:18:05;;;;;;;11.93;0.70;;;3.50;99.90;;;;;;5049876;28;20041;-54
2023/03/07 06:20:31;;;;;;;4.63;0.70;;;3.50;99.90;;;;;;5065962;28;20052;-53
2023/03/07 06:22:56;;;;;;;8.43;1.80;;;3.40;99.90;;;;;;5070934;28;20087;-52
2023/03/07 06:25:22;;;;;;;2.27;0.53;;;3.50;99.90;;;;;;5070602;28;20076;-55
2023/03/07 06:27:48;;;;;;;5.60;0.53;;;3.50;99.90;;;;;;5069306;28;20044;-55
2023/03/07 06:30:13;;;;;;;6.20;0.80;;;3.50;99.90;;;;;;5069313;28;20033;-55
2023/03/07 06:32:39;;;;;;;6.37;0.60;;;3.40;99.90;;;;;;5069675;28;20452;-54
2023/03/07 06:35:05;;;;;;;11.40;0.97;;;3.50;99.90;;;;;;5069058;28;20041;-52
2023/03/07 06:37:31;;;;;;;7.68;0.95;;;3.50;99.90;;;;;;5069027;28;20037;-55
2023/03/07 06:39:56;;;;;;;7.37;1.17;;;3.50;99.90;;;;;;5070639;28;20094;-54
2023/03/07 06:42:22;;;;;;;6.60;0.70;;;3.50;99.90;;;;;;5069951;28;20044;-54
2023/03/07 06:44:48;;;;;;;6.97;0.90;;;3.50;99.90;;;;;;5069810;28;20307;-52
2023/03/07 06:47:13;;;;;;;6.10;0.50;;;3.50;99.90;;;;;;5067403;28;20055;-56
2023/03/07 06:49:39;;;;;;;6.80;0.90;;;3.50;99.90;;;;;;5067902;28;20037;-53
2023/03/07 06:52:04;;;;;;;9.37;1.40;;;3.50;99.90;;;;;;5069966;28;20044;-54
2023/03/07 06:54:30;;;;;;;2.33;0.77;;;3.50;99.90;;;;;;5069198;28;20049;-53
2023/03/07 06:56:56;;;;;;;10.30;0.83;;;3.50;99.90;;;;;;5069820;28;20038;-51
2023/03/07 06:59:21;;;;;;;6.67;0.40;;;3.40;99.90;;;;;;5069167;28;20102;-54
2023/03/07 07:01:47;;;;;;;12.60;0.73;;;3.40;99.90;;;;;;5069526;28;20040;-56
2023/03/07 07:04:13;;;;;;;5.50;0.70;;;3.40;99.90;;;;;;5063677;28;20049;-54
2023/03/07 07:06:39;;;;;;;4.28;0.57;;;3.40;99.90;;;;;;5058044;28;20476;-53
2023/03/07 07:09:04;;;;;;;7.43;1.20;;;3.40;99.90;;;;;;5068877;28;20485;-56
2023/03/07 07:11:30;;;;;;;4.53;1.00;;;3.40;99.90;;;;;;5064232;28;20275;-53
2023/03/07 07:13:56;;;;;;;3.88;0.70;;;3.50;99.90;;;;;;5070017;28;20041;-53
2023/03/07 07:16:22;;;;;;;5.83;0.60;;;3.50;99.90;;;;;;5058876;28;20052;-54
2023/03/07 07:18:50;;;;;;;8.83;0.60;;;3.50;99.90;;;;;;5054280;28;20110;-53
2023/03/07 07:21:16;;;;;;;11.27;1.23;;;3.50;99.90;;;;;;5052901;28;20033;-55
2023/03/07 07:23:42;;;;;;;8.85;1.85;;;3.50;99.90;;;;;;5067275;28;20040;-55
2023/03/07 07:26:08;;;;;;;2.30;0.37;;;3.50;99.90;;;;;;5068568;28;20029;-52
2023/03/07 07:28:33;;;;;;;5.43;0.93;;;3.50;99.90;;;;;;5056313;28;20116;-52
2023/03/07 07:30:59;;;;;;;1.55;0.32;;;3.40;99.90;;;;;;5049804;28;20033;-53
2023/03/07 07:33:25;;;;;;;8.27;0.60;;;3.40;99.90;;;;;;5063077;28;20067;-55
2023/03/07 07:35:50;;;;;;;2.60;0.50;;;3.30;99.90;;;;;;5052435;28;20037;-54
2023/03/07 07:38:16;;;;;;;4.40;0.33;;;3.10;99.90;;;;;;5061324;28;20163;-54
2023/03/07 07:40:42;;;;;;;3.53;0.37;;;3.10;99.90;;;;;;5069222;28;20119;-54
2023/03/07 07:43:13;;;;;;;4.78;0.40;;;3.00;99.90;;;;;;5059483;28;20037;-55
2023/03/07 07:45:39;;;;;;;4.57;0.30;;;3.00;99.90;;;;;;5068300;28;20032;-55
2023/03/07 07:48:04;;;;;;;7.37;0.40;;;3.00;99.90;;;;;;5067627;28;20036;-55
2023/03/07 07:50:30;;;;;;;7.43;1.37;;;3.00;99.90;;;;;;5069501;28;20202;-55
2023/03/07 07:52:55;;;;;;;1.90;0.30;;;3.00;99.90;;;;;;5052572;28;20120;-56
2023/03/07 07:55:23;;;;;;;5.07;0.40;;;3.00;99.90;;;;;;5060552;28;20028;-56
2023/03/07 07:57:49;;;;;;;7.43;0.68;;;3.00;99.90;;;;;;5053777;28;20125;-54
2023/03/07 08:00:19;;;;;;;3.25;0.30;;;2.90;99.90;;;;;;5058493;28;20053;-54
2023/03/07 08:02:48;;;;;;;3.40;0.35;;;2.90;99.90;;;;;;5052604;28;20049;-54
2023/03/07 08:05:14;;;;;;;3.90;0.38;;;2.80;99.90;;;;;;5067700;28;20098;-55
2023/03/07 08:07:40;;;;;;;4.60;0.93;;;2.70;99.90;;;;;;5060641;28;20083;-53
2023/03/07 08:10:06;;;;;;;3.80;0.50;;;2.70;99.90;;;;;;5060937;28;20033;-53
2023/03/07 08:12:32;;;;;;;6.20;0.43;;;2.60;99.90;;;;;;5068926;28;20040;-54
2023/03/07 08:14:57;;;;;;;6.63;0.93;;;2.50;99.90;;;;;;5050315;28;20033;-55
2023/03/07 08:17:23;;;;;;;6.73;0.70;;;2.40;99.90;;;;;;5058016;28;20025;-56
2023/03/07 08:19:48;;;;;;;6.90;0.50;;;2.40;99.90;;;;;;5054772;28;20040;-56
2023/03/07 08:22:15;;;;;;;7.27;0.50;;;2.40;99.90;;;;;;5062670;28;20081;-56
2023/03/07 08:24:41;;;;;;;4.95;0.63;;;2.30;99.90;;;;;;5060533;28;20115;-54
2023/03/07 08:27:07;;;;;;;4.77;0.93;;;2.30;99.90;;;;;;5051521;28;20119;-56
2023/03/07 08:29:34;;;;;;;8.25;0.77;;;2.30;99.90;;;;;;5047922;28;20037;-52
2023/03/07 08:32:00;;;;;;;4.78;0.50;;;2.30;99.90;;;;;;5049180;28;20037;-55
2023/03/07 08:34:26;;;;;;;;;;;2.30;99.90;;;;;;5049371;28;20044;-56
2023/03/07 08:36:51;;;;;;;6.50;0.50;;;2.40;99.90;;;;;;5048664;28;19917;-55
2023/03/07 08:39:17;;;;;;;5.20;0.55;;;2.40;99.90;;;;;;5045910;28;20483;-56
2023/03/07 08:41:43;;;;;;;10.10;0.52;;;2.40;99.90;;;;;;5048509;28;20051;-57
2023/03/07 08:44:09;;;;;;;2.50;0.40;;;2.50;99.90;;;;;;5063784;28;20040;-54
2023/03/07 08:46:34;;;;;;;5.80;0.40;;;2.50;99.90;;;;;;5068631;28;20075;-55
2023/03/07 08:49:00;;;;;;;3.33;0.63;;;2.60;99.90;;;;;;5051105;28;20199;-57
2023/03/07 08:51:26;;;;;;;6.80;0.50;;;2.60;99.90;;;;;;5049007;28;20037;-54
2023/03/07 08:53:51;;;;;;;7.65;0.80;;;2.70;99.90;;;;;;5054722;28;20500;-55
2023/03/07 08:56:17;;;;;;;7.97;0.50;;;2.70;99.90;;;;;;5068685;28;20051;-55
2023/03/07 08:58:43;;;;;;;7.07;1.33;;;2.70;99.90;;;;;;5051073;28;20396;-54
2023/03/07 09:01:11;;;;;;;10.93;1.43;;;2.80;99.90;;;;;;5049102;28;20111;-56
2023/03/07 09:03:37;;;;;;;11.05;0.60;;;2.80;99.90;;;;;;5051788;28;20049;-53
2023/03/07 09:06:04;;;;;;;1.80;0.43;;;2.90;99.90;;;;;;5068485;28;20033;-54
2023/03/07 09:08:29;;;;;;;;;;;3.00;99.90;;;;;;5070199;28;20042;-52
2023/03/07 09:10:58;;;;;;;7.03;0.82;;;3.00;99.90;;;;;;5072011;28;20346;-56
2023/03/07 09:13:24;;;;;;;2.58;0.77;;;3.10;99.90;;;;;;5068557;28;20048;-55
2023/03/07 09:15:49;;;;;;;7.60;0.90;;;3.10;99.90;;;;;;5048962;28;20040;-57
2023/03/07 09:18:15;;;;;;;3.33;0.60;;;3.10;99.90;;;;;;5056748;28;20142;-57
2023/03/07 09:20:41;;;;;;;6.67;1.50;;;3.20;99.90;;;;;;5049485;28;20410;-54
2023/03/07 09:23:07;;;;;;;3.30;0.80;;;3.20;99.90;;;;;;5054273;28;20048;-54
2023/03/07 09:25:32;;;;;;;5.32;0.75;;;3.20;99.90;;;;;;5053085;28;20063;-56
2023/03/07 09:27:58;;;;;;;7.47;0.67;;;3.30;99.90;;;;;;5045566;28;20065;-55
2023/03/07 09:30:25;;;;;;;11.13;1.33;;;3.30;99.90;;;;;;5052084;28;20732;-56
2023/03/07 09:32:51;;;;;;;9.68;0.95;;;3.40;99.90;;;;;;5053824;28;20076;-55
2023/03/07 09:35:17;;;;;;;4.10;1.10;;;3.40;99.90;;;;;;5053858;28;20132;-56
2023/03/07 09:37:43;;;;;;;8.73;0.50;;;3.50;99.90;;;;;;5050767;28;20041;-56
2023/03/07 09:40:25;;;;;;;9.93;2.00;;;3.50;99.90;;;;;;5058369;28;20041;-57
2023/03/07 09:42:56;;;;;;;6.35;0.70;;;3.60;99.90;;;;;;5055853;28;20044;-56
2023/03/07 09:45:41;;;;;;;9.55;0.70;;;3.60;99.90;;;;;;5054130;28;20120;-55
2023/03/07 09:48:36;;;;;;;7.25;0.70;;;3.70;99.90;;;;;;5049967;28;20041;-57
2023/03/07 09:51:22;;;;;;;4.57;0.90;;;3.70;99.90;;;;;;5055081;28;20124;-55
2023/03/07 09:54:04;;;;;;;5.28;1.15;;;3.70;99.90;;;;;;5049691;28;20119;-54
2023/03/07 09:57:01;;;;;;;10.23;0.73;;;3.80;99.90;;;;;;5051092;28;20044;-55
2023/03/07 09:59:42;;;;;;;3.78;0.50;;;3.80;99.90;;;;;;5052228;28;20139;-55
2023/03/07 10:02:16;;;;;;;6.60;1.20;;;3.80;99.90;;;;;;5056485;28;20053;-57
2023/03/07 10:05:07;;;;;;;4.15;0.68;;;3.80;99.90;;;;;;5048795;28;20044;-56
2023/03/07 10:07:34;;;;;;;4.93;0.60;;;3.90;99.90;;;;;;5046543;28;20110;-56
2023/03/07 10:10:03;;;;;;;8.75;1.00;;;3.90;99.90;;;;;;5057114;28;20040;-56
2023/03/07 10:12:50;;;;;;;4.47;0.60;;;3.90;99.90;;;;;;5049540;28;20047;-58
2023/03/07 10:15:41;;;;;;;2.35;0.60;;;3.90;99.90;;;;;;5052701;28;20064;-57
2023/03/07 10:18:12;;;;;;;6.72;0.55;;;3.90;99.90;;;;;;5049812;28;20034;-59
2023/03/07 10:20:46;;;;;;;12.15;1.05;;;4.00;99.90;;;;;;5050804;28;20036;-60
2023/03/07 10:23:28;;;;;;;7.43;0.93;;;4.00;99.90;;;;;;5051464;28;20044;-58
2023/03/07 10:25:59;;;;;;;9.13;0.70;;;4.00;99.90;;;;;;5046258;28;20143;-60
2023/03/07 10:28:29;;;;;;;7.65;0.55;;;4.10;99.90;;;;;;5048452;28;20447;-60
2023/03/07 10:31:38;;;;;;;3.80;0.55;;;4.10;99.90;;;;;;5053481;28;20043;-59
2023/03/07 10:34:27;;;;;;;8.32;0.82;;;4.20;99.90;;;;;;5042603;28;20195;-60
2023/03/07 10:37:02;;;;;;;4.05;0.85;;;4.20;99.90;;;;;;5046770;28;20040;-59
2023/03/07 10:39:43;;;;;;;6.20;1.27;;;4.20;99.90;;;;;;5044845;28;20036;-60
2023/03/07 10:42:12;;;;;;;7.78;1.38;;;4.30;99.90;;;;;;5047298;28;20106;-60
2023/03/07 10:44:38;;;;;;;5.30;0.52;;;4.30;99.90;;;;;;5048048;28;20131;-60
2023/03/07 10:47:04;;;;;;;3.97;0.50;;;4.30;99.90;;;;;;5050655;28;20107;-60
2023/03/07 10:49:44;;;;;;;4.27;0.77;;;4.30;99.90;;;;;;5049812;28;20442;-60
2023/03/07 10:52:28;;;;;;;7.57;0.80;;;4.40;99.90;;;;;;5050980;28;20095;-60
2023/03/07 10:54:54;;;;;;;5.38;0.85;;;4.30;99.90;;;;;;5051618;28;20130;-60
2023/03/07 10:57:27;;;;;;;3.83;0.68;;;4.30;99.90;;;;;;5049555;28;20036;-60
2023/03/07 10:59:52;;;;;;;3.85;0.32;;;4.40;99.90;;;;;;5050411;28;20041;-60
2023/03/07 11:02:33;;;;;;;5.93;0.60;;;4.30;99.90;;;;;;5049064;28;20043;-61
2023/03/07 11:04:59;;;;;;;6.15;0.50;;;4.30;99.90;;;;;;5049709;28;20532;-60
2023/03/07 11:07:29;;;;;;;9.48;1.60;;;4.30;99.90;;;;;;5046156;28;20040;-61
2023/03/07 11:09:57;;;;;;;9.70;0.93;;;4.40;99.90;;;;;;5050404;28;20501;-60
2023/03/07 11:12:24;;;;;;;6.20;1.05;;;4.50;99.90;;;;;;5048394;28;20355;-60
2023/03/07 11:14:54;;;;;;;4.88;0.85;;;4.60;99.90;;;;;;5046345;28;20044;-60
2023/03/07 11:17:44;;;;;;;9.02;1.40;;;4.70;99.90;;;;;;5048757;28;20037;-60
2023/03/07 11:20:27;;;;;;;6.50;1.23;;;4.70;99.90;;;;;;5047166;28;20553;-60
2023/03/07 11:23:22;;;;;;;8.20;1.10;;;4.70;99.90;;;;;;5050970;28;20167;-61
2023/03/07 11:25:48;;;;;;;7.70;0.93;;;4.70;99.90;;;;;;5048862;28;20094;-60
2023/03/07 11:28:28;;;;;;;2.47;0.65;;;4.80;99.90;;;;;;5046551;28;20037;-60
2023/03/07 11:31:09;;;;;;;6.75;0.95;;;4.80;99.90;;;;;;5043161;28;20029;-60
2023/03/07 11:33:46;;;;;;;11.52;1.20;;;4.80;99.90;;;;;;5047062;28;20045;-61
2023/03/07 11:36:18;;;;;;;7.50;1.13;;;4.90;99.90;;;;;;5051054;28;20036;-60
2023/03/07 11:38:52;;;;;;;9.02;0.82;;;4.90;99.90;;;;;;5051085;28;20049;-60
2023/03/07 11:41:30;;;;;;;6.38;1.30;;;5.00;99.90;;;;;;5053149;28;20037;-61
2023/03/07 11:44:33;;;;;;;5.13;0.55;;;5.00;99.90;;;;;;5046097;28;20127;-60
2023/03/07 11:47:16;;;;;;;7.03;0.60;;;5.10;99.90;;;;;;5048691;28;20032;-60
2023/03/07 11:49:43;;;;;;;7.15;0.80;;;5.10;99.90;;;;;;5048364;28;20052;-62
2023/03/07 11:52:38;;;;;;;7.90;0.70;;;5.30;99.90;;;;;;5048844;28;20040;-63
2023/03/07 11:55:35;;;;;;;5.38;0.98;;;5.30;99.90;;;;;;5047382;28;20052;-63
2023/03/07 11:58:06;;;;;;;5.03;0.85;;;5.40;99.90;;;;;;5050416;28;20037;-62
2023/03/07 12:01:09;;;;;;;8.85;1.33;;;5.40;99.90;;;;;;5052822;28;20166;-63
2023/03/07 12:03:52;;;;;;;8.52;1.05;;;5.40;99.90;;;;;;5009311;28;20051;-62
2023/03/07 12:06:29;;;;;;;3.50;0.50;;;5.50;99.90;;;;;;5046101;28;20486;-62
2023/03/07 12:09:11;;;;;;;7.20;0.80;;;5.70;99.90;;;;;;5050561;28;20064;-63
2023/03/07 12:11:56;;;;;;;4.03;0.75;;;5.80;99.90;;;;;;5050572;28;20116;-63
2023/03/07 12:14:42;;;;;;;5.03;1.23;;;5.80;99.90;;;;;;5049019;28;20498;-61
2023/03/07 12:17:16;;;;;;;3.65;1.00;;;5.90;99.90;;;;;;5049035;28;20049;-62
2023/03/07 12:20:09;;;;;;;2.55;0.50;;;5.90;99.90;;;;;;5043941;28;20044;-62
2023/03/07 12:22:55;;;;;;;8.88;1.25;;;5.80;99.90;;;;;;5043898;28;20134;-62
2023/03/07 12:25:25;;;;;;;5.40;1.15;;;5.80;99.90;;;;;;5051824;28;20036;-61
2023/03/07 12:28:05;;;;;;;12.68;1.20;;;5.80;99.90;;;;;;5043701;28;20097;-62
2023/03/07 12:30:54;;;;;;;4.88;0.73;;;5.90;99.90;;;;;;5048639;28;20044;-63
2023/03/07 12:33:25;;;;;;;4.75;0.60;;;5.80;99.90;;;;;;5042205;28;20060;-63
2023/03/07 12:35:59;;;;;;;5.07;0.55;;;5.60;99.90;;;;;;5045357;28;20497;-61
2023/03/07 12:38:33;;;;;;;6.05;0.50;;;5.40;99.90;;;;;;5053944;28;20420;-62
2023/03/07 12:41:17;;;;;;;6.20;0.50;;;5.20;99.90;;;;;;5050480;28;20442;-63
2023/03/07 12:43:50;;;;;;;3.65;0.40;;;5.00;99.90;;;;;;5053847;28;20052;-62
2023/03/07 12:46:31;;;;;;;3.28;0.50;;;4.90;99.90;;;;;;5057758;28;20151;-62
2023/03/07 12:49:18;;;;;;;2.88;0.50;;;4.80;99.90;;;;;;5051106;28;20040;-62
2023/03/07 12:51:54;;;;;;;2.33;0.85;;;4.70;99.90;;;;;;5049086;28;20037;-62
2023/03/07 12:54:31;;;;;;;5.57;0.65;;;4.60;99.90;;;;;;5055480;28;20040;-63
2023/03/07 12:57:07;;;;;;;6.93;0.98;;;4.50;99.90;;;;;;5054275;28;20521;-62
2023/03/07 12:59:36;;;;;;;7.95;1.02;;;4.50;99.90;;;;;;5050060;28;20045;-63
2023/03/07 13:02:26;;;;;;;8.70;0.70;;;4.40;99.90;;;;;;5050378;28;20076;-62
2023/03/07 13:04:52;;;;;;;7.40;0.98;;;4.30;99.90;;;;;;5057702;28;20278;-62
2023/03/07 13:07:29;;;;;;;6.57;1.20;;;4.20;99.90;;;;;;5057439;28;20421;-63
2023/03/07 13:09:58;;;;;;;5.57;0.40;;;4.10;99.90;;;;;;5056085;28;20032;-62
2023/03/07 13:12:37;;;;;;;4.80;0.50;;;4.10;99.90;;;;;;5057792;28;20037;-62